ULLI/LED METAR and TAF weather

Enter ICAO airport designator
Station Type Date Time Source
ULLI METAR 2019/06/25 05:30 UTC NOAA

ULLI 250530Z VRB01MPS CAVOK 17/11 Q1029 R88/090060 NOSIG


Station Type Date Time Source
ULLI Decoded METAR 2019/06/25 05:30 UTC NOAA

St. Peterburg, Russia (ULLI) 59-58N 030-18E 6M
Jun 25, 2019 - 01:30 AM EDT / 2019.06.25 0530 UTC
Wind: Variable at 2 MPH (2 KT):0
Visibility: greater than 7 mile(s):0
Temperature: 62 F (17 C)
Dew Point: 51 F (11 C)
Relative Humidity: 67%
Pressure (altimeter): 30.39 in. Hg (1029 hPa)
ob: ULLI 250530Z VRB01MPS CAVOK 17/11 Q1029 R88/090060 NOSIG
cycle: 5

Station Type Date Time Source
ULLI TAF 2019/06/25 06:21 UTC NOAA

TAF TAF ULLI 250457Z 2506/2606 26003G08MPS 9999 SCT025
TEMPO 2509/2518 30005G10MPS 4000 -SHRA BKN015 BKN025CB
TEMPO 2518/2606 31003MPS 3100 -SHRA BKN011 BKN025CB

Example: see airport list